Vladimir, Russia
Current Conditions -  °F | °C
As of 11:00 PM on Saturday 20 Dec 2014 (Local Time) from UUDL Reporting Station
Overcast Overcast  
Wind Chill: 30°   Ceiling: 4000
Heat Index: 36°   Visibility: 6mi
Dew Point: 32°   Wind: 7mph
Humidity: 87%   Direction: 210°SSW
Pressure: 29.35"   Gusts: NA
Location:  56.14°N, 40.4°E
Report Text: UUDL 202000Z 21003MPS 9999 OVC040 02/00 Q0994 NOSIG RMK QFE73723290250
Loading
Personal Weather Stations






























Interactive Weather Map New forecast layout! Learn more

10-Day Weather Forecast

Advertisements
Track Severe Weather on mobile